createdAt,value
2022-12-25T00:02:07.190Z,91.60
2022-12-25T00:04:37.094Z,91.70
2022-12-25T00:07:07.029Z,91.80
2022-12-25T00:09:36.949Z,91.90
2022-12-25T00:12:06.947Z,91.80
2022-12-25T00:14:37.469Z,91.90
2022-12-25T00:17:07.426Z,91.80
2022-12-25T00:19:37.351Z,91.80
2022-12-25T00:22:07.294Z,91.60
2022-12-25T00:24:37.304Z,91.60
2022-12-25T00:27:07.252Z,91.70
2022-12-25T00:29:37.259Z,91.80
2022-12-25T00:32:07.287Z,91.80
2022-12-25T00:34:37.306Z,91.90
2022-12-25T00:37:07.664Z,92.00
2022-12-25T00:39:37.833Z,91.90
2022-12-25T00:42:23.106Z,91.90
2022-12-25T00:44:53.637Z,91.90
2022-12-25T00:47:23.568Z,91.90
2022-12-25T00:49:53.566Z,91.90
2022-12-25T00:52:24.276Z,92.10
2022-12-25T00:54:54.128Z,92.10
2022-12-25T00:57:24.043Z,92.10
2022-12-25T00:59:53.993Z,92.10
2022-12-25T01:02:25.600Z,92.20
2022-12-25T01:04:59.341Z,92.40
2022-12-25T01:07:29.635Z,92.20
2022-12-25T01:10:17.130Z,92.20
2022-12-25T01:12:47.018Z,92.30
2022-12-25T01:15:17.234Z,92.30
2022-12-25T01:17:48.323Z,92.30
2022-12-25T01:20:20.031Z,92.40
2022-12-25T01:22:50.062Z,92.50
2022-12-25T01:25:19.977Z,92.50
2022-12-25T01:27:49.889Z,92.50
2022-12-25T01:30:19.960Z,92.50
2022-12-25T01:32:49.869Z,92.40
2022-12-25T01:35:19.807Z,92.40
2022-12-25T01:37:49.826Z,92.40
2022-12-25T01:40:19.924Z,92.40
2022-12-25T01:42:49.854Z,92.50
2022-12-25T01:45:35.637Z,92.50
2022-12-25T01:48:13.952Z,92.50
2022-12-25T01:50:48.184Z,92.50
2022-12-25T01:53:18.135Z,92.50
2022-12-25T01:55:51.305Z,92.60
2022-12-25T01:58:21.397Z,92.50
2022-12-25T02:00:52.928Z,92.50
2022-12-25T02:03:23.709Z,92.30
2022-12-25T02:05:53.377Z,92.30
2022-12-25T02:08:24.417Z,92.00
2022-12-25T02:10:54.450Z,91.90
2022-12-25T02:13:24.697Z,91.70
2022-12-25T02:16:11.480Z,91.20
2022-12-25T02:19:00.397Z,90.80
2022-12-25T02:21:53.572Z,91.00
2022-12-25T02:24:52.323Z,91.30
2022-12-25T02:27:52.435Z,91.20
2022-12-25T02:30:23.836Z,90.90
2022-12-25T02:33:12.087Z,90.80
2022-12-25T02:35:43.341Z,90.80
2022-12-25T02:38:23.800Z,90.60
2022-12-25T02:40:59.551Z,90.40
2022-12-25T02:43:52.691Z,90.30
2022-12-25T02:46:43.020Z,90.30
2022-12-25T02:49:33.065Z,90.30
2022-12-25T02:52:23.398Z,90.40
2022-12-25T02:55:13.415Z,90.20
2022-12-25T02:58:03.628Z,90.00
2022-12-25T03:00:53.757Z,89.30
2022-12-25T03:03:43.939Z,89.10
2022-12-25T03:06:34.042Z,88.90
2022-12-25T03:09:24.280Z,88.20
2022-12-25T03:12:10.637Z,88.20
2022-12-25T03:14:54.613Z,87.60
2022-12-25T03:17:24.751Z,87.20
2022-12-25T03:20:05.068Z,87.30
2022-12-25T03:22:45.032Z,87.50
2022-12-25T03:25:25.305Z,87.40
2022-12-25T03:27:57.921Z,86.50
2022-12-25T03:30:55.524Z,86.10
2022-12-25T03:34:05.613Z,85.90
2022-12-25T03:37:17.771Z,85.70
2022-12-25T03:40:24.609Z,86.10
2022-12-25T03:43:16.202Z,85.80
2022-12-25T03:46:06.339Z,85.90
2022-12-25T03:48:56.513Z,84.60
2022-12-25T03:51:46.638Z,84.90
2022-12-25T03:54:36.945Z,84.40
2022-12-25T03:57:16.985Z,83.70
2022-12-25T03:59:57.225Z,84.20
2022-12-25T04:02:37.483Z,84.80
2022-12-25T04:05:17.533Z,84.30
2022-12-25T04:07:57.657Z,84.50
2022-12-25T04:10:37.851Z,83.90
2022-12-25T04:13:17.991Z,83.70
2022-12-25T04:15:58.274Z,82.80
2022-12-25T04:18:38.312Z,82.60
2022-12-25T04:21:18.605Z,81.60
2022-12-25T04:23:58.609Z,81.60
2022-12-25T04:26:38.885Z,81.00
2022-12-25T04:29:18.925Z,80.40
2022-12-25T04:31:59.203Z,81.10
2022-12-25T04:34:39.256Z,79.60
2022-12-25T04:37:09.323Z,80.00
2022-12-25T04:39:39.293Z,79.80
2022-12-25T04:42:09.445Z,79.10
2022-12-25T04:44:39.467Z,77.30
2022-12-25T04:47:11.536Z,77.70
2022-12-25T04:49:42.169Z,77.10
2022-12-25T04:52:12.082Z,76.60
2022-12-25T04:54:42.082Z,75.60
2022-12-25T04:57:12.169Z,74.90
2022-12-25T04:59:42.118Z,74.90
2022-12-25T05:02:12.035Z,75.10
2022-12-25T05:04:42.051Z,74.70
2022-12-25T05:07:11.957Z,74.70
2022-12-25T05:09:43.458Z,75.60
2022-12-25T05:12:14.841Z,75.50
2022-12-25T05:14:44.774Z,75.80
2022-12-25T05:17:14.776Z,74.70
2022-12-25T05:19:45.499Z,74.90
2022-12-25T05:22:15.528Z,73.60
2022-12-25T05:24:45.542Z,73.70
2022-12-25T05:27:16.493Z,73.80
2022-12-25T05:29:46.409Z,73.20
2022-12-25T05:32:16.616Z,72.90
2022-12-25T05:34:46.656Z,72.40
2022-12-25T05:37:16.764Z,72.00
2022-12-25T05:39:46.660Z,72.70
2022-12-25T05:42:16.521Z,72.20
2022-12-25T05:44:46.485Z,73.20
2022-12-25T05:47:16.476Z,73.00
2022-12-25T05:49:46.399Z,73.20
2022-12-25T05:52:16.423Z,71.10
2022-12-25T05:54:46.459Z,70.20
2022-12-25T05:57:16.414Z,70.20
2022-12-25T05:59:46.370Z,69.30
2022-12-25T06:02:16.529Z,69.20
2022-12-25T06:04:46.539Z,68.70
2022-12-25T06:07:16.542Z,67.80
2022-12-25T06:09:46.536Z,67.70
2022-12-25T06:12:16.588Z,67.30
2022-12-25T06:14:46.488Z,65.50
2022-12-25T06:17:16.409Z,61.70
2022-12-25T06:19:46.520Z,61.00
2022-12-25T06:22:19.395Z,63.10
2022-12-25T06:24:49.545Z,63.80
2022-12-25T06:27:19.460Z,64.60
2022-12-25T06:29:49.429Z,63.10
2022-12-25T06:32:19.501Z,62.50
2022-12-25T06:34:49.443Z,62.60
2022-12-25T06:37:19.427Z,59.80
2022-12-25T06:39:50.312Z,58.60
2022-12-25T06:42:20.229Z,57.90
2022-12-25T06:44:50.069Z,57.40
2022-12-25T06:47:20.307Z,58.30
2022-12-25T06:49:50.177Z,59.70
2022-12-25T06:52:20.040Z,59.30
2022-12-25T06:54:50.639Z,59.40
2022-12-25T06:57:20.939Z,58.60
2022-12-25T06:59:54.932Z,58.90
2022-12-25T07:02:27.442Z,59.20
2022-12-25T07:04:57.735Z,58.60
2022-12-25T07:07:27.791Z,57.40
2022-12-25T07:09:57.761Z,57.80
2022-12-25T07:12:27.711Z,58.10
2022-12-25T07:14:58.659Z,58.00
2022-12-25T07:17:28.556Z,56.20
2022-12-25T07:19:58.934Z,56.70
2022-12-25T07:22:30.667Z,57.70
2022-12-25T07:25:00.701Z,58.40
2022-12-25T07:27:30.595Z,59.70
2022-12-25T07:30:00.527Z,60.10
2022-12-25T07:32:33.626Z,58.80
2022-12-25T07:35:03.446Z,58.50
2022-12-25T07:37:33.300Z,59.00
2022-12-25T07:40:03.176Z,57.70
2022-12-25T07:42:34.395Z,58.60
2022-12-25T07:45:05.485Z,57.10
2022-12-25T07:47:35.423Z,57.40
2022-12-25T07:50:05.572Z,58.30
2022-12-25T07:52:41.409Z,57.50
2022-12-25T07:55:13.767Z,58.70
2022-12-25T07:57:43.800Z,57.90
2022-12-25T08:00:14.339Z,58.20
2022-12-25T08:02:44.862Z,57.70
2022-12-25T08:05:15.968Z,57.90
2022-12-25T08:07:45.953Z,58.40
2022-12-25T08:10:15.929Z,58.30
2022-12-25T08:12:45.842Z,59.00
2022-12-25T08:15:15.817Z,58.60
2022-12-25T08:17:46.017Z,59.40
2022-12-25T08:20:16.095Z,60.10
2022-12-25T08:22:46.003Z,59.00
2022-12-25T08:25:17.651Z,57.60
2022-12-25T08:27:47.616Z,56.80
2022-12-25T08:30:17.739Z,57.60
2022-12-25T08:32:47.769Z,57.10
2022-12-25T08:35:17.735Z,56.30
2022-12-25T08:37:47.641Z,55.20
2022-12-25T08:40:17.837Z,56.80
2022-12-25T08:42:48.155Z,56.30
2022-12-25T08:45:18.118Z,55.90
2022-12-25T08:47:48.522Z,56.20
2022-12-25T08:50:18.531Z,56.50
2022-12-25T08:52:48.533Z,57.50
2022-12-25T08:55:18.552Z,58.50
2022-12-25T08:57:48.403Z,58.60
2022-12-25T09:00:18.935Z,58.20
2022-12-25T09:02:48.964Z,59.00
2022-12-25T09:05:19.000Z,59.50
2022-12-25T09:07:48.969Z,60.00
2022-12-25T09:10:18.979Z,60.00
2022-12-25T09:12:48.880Z,60.80
2022-12-25T09:15:19.004Z,60.60
2022-12-25T09:17:48.865Z,60.80
2022-12-25T09:20:18.945Z,61.30
2022-12-25T09:22:49.000Z,61.60
2022-12-25T09:25:18.915Z,61.70
2022-12-25T09:27:48.797Z,61.90
2022-12-25T09:30:19.489Z,61.40
2022-12-25T09:32:49.450Z,61.60
2022-12-25T09:35:21.427Z,61.20
2022-12-25T09:37:51.372Z,61.80
2022-12-25T09:40:23.723Z,62.20
2022-12-25T09:42:56.827Z,62.40
2022-12-25T09:45:38.366Z,61.80
2022-12-25T09:48:08.464Z,62.50
2022-12-25T09:51:02.933Z,63.00
2022-12-25T09:53:41.716Z,63.20
2022-12-25T09:56:16.579Z,63.80
2022-12-25T09:58:46.755Z,63.60
2022-12-25T10:01:41.479Z,63.40
2022-12-25T10:04:37.512Z,64.10
2022-12-25T10:07:39.916Z,64.30
2022-12-25T10:10:39.819Z,64.70
2022-12-25T10:13:36.219Z,64.90
2022-12-25T10:16:24.422Z,64.60
2022-12-25T10:19:12.874Z,65.50
2022-12-25T10:21:43.234Z,65.30
2022-12-25T10:24:29.946Z,66.40
2022-12-25T10:27:00.292Z,66.50
2022-12-25T10:29:32.782Z,66.00
2022-12-25T10:32:03.089Z,66.70
2022-12-25T10:34:33.033Z,67.00
2022-12-25T10:37:03.979Z,67.20
2022-12-25T10:39:34.065Z,68.10
2022-12-25T10:42:31.736Z,68.40
2022-12-25T10:45:07.418Z,69.40
2022-12-25T10:47:43.970Z,69.80
2022-12-25T10:50:26.246Z,70.00
2022-12-25T10:53:06.913Z,70.20
2022-12-25T10:55:36.861Z,70.40
2022-12-25T10:58:07.989Z,71.30
2022-12-25T11:00:37.831Z,71.50
2022-12-25T11:03:07.960Z,72.40
2022-12-25T11:05:38.555Z,71.40
2022-12-25T11:08:20.801Z,72.60
2022-12-25T11:11:08.919Z,72.80
2022-12-25T11:13:49.247Z,72.10
2022-12-25T11:16:37.799Z,72.70
2022-12-25T11:19:27.641Z,73.10
2022-12-25T11:22:01.800Z,73.90
2022-12-25T11:24:34.047Z,73.60
2022-12-25T11:27:08.210Z,74.20
2022-12-25T11:30:00.945Z,74.30
2022-12-25T11:32:48.612Z,74.20
2022-12-25T11:35:20.726Z,74.50
2022-12-25T11:37:54.792Z,75.00
2022-12-25T11:40:49.021Z,75.00
2022-12-25T11:43:32.072Z,75.60
2022-12-25T11:46:18.888Z,76.10
2022-12-25T11:48:57.781Z,76.40
2022-12-25T11:51:32.815Z,76.60
2022-12-25T11:54:10.635Z,76.60
2022-12-25T11:56:40.940Z,76.60
2022-12-25T11:59:29.803Z,77.60
2022-12-25T12:02:24.963Z,77.30
2022-12-25T12:05:06.574Z,78.30
2022-12-25T12:07:39.756Z,78.40
2022-12-25T12:10:21.378Z,78.60
2022-12-25T12:13:28.737Z,78.70
2022-12-25T12:16:00.262Z,78.90
2022-12-25T12:18:34.829Z,79.10
2022-12-25T12:21:26.461Z,79.50
2022-12-25T12:24:14.585Z,79.70
2022-12-25T12:26:48.420Z,79.50
2022-12-25T12:29:30.379Z,80.00
2022-12-25T12:32:04.912Z,79.80
2022-12-25T12:34:45.600Z,80.00
2022-12-25T12:37:24.782Z,79.90
2022-12-25T12:39:56.923Z,79.70
2022-12-25T12:42:31.556Z,80.00
2022-12-25T12:45:11.449Z,80.20
2022-12-25T12:47:45.351Z,80.30
2022-12-25T12:50:45.322Z,80.70
2022-12-25T12:53:33.841Z,81.10
2022-12-25T12:56:22.098Z,81.30
2022-12-25T12:58:53.259Z,81.50
2022-12-25T13:01:46.277Z,81.90
2022-12-25T13:04:34.720Z,81.80
2022-12-25T13:07:45.513Z,81.80
2022-12-25T13:10:30.547Z,82.20
2022-12-25T13:13:25.216Z,82.30
2022-12-25T13:15:57.653Z,82.20
2022-12-25T13:18:27.593Z,82.60
2022-12-25T13:21:01.368Z,83.00
2022-12-25T13:23:40.765Z,82.70
2022-12-25T13:26:18.784Z,82.40
2022-12-25T13:28:49.732Z,82.70
2022-12-25T13:31:29.762Z,83.00
2022-12-25T13:34:21.037Z,83.20
2022-12-25T13:36:51.472Z,82.50
2022-12-25T13:39:21.778Z,82.20
2022-12-25T13:42:11.839Z,82.60
2022-12-25T13:44:54.006Z,82.60
2022-12-25T13:47:32.016Z,82.00
2022-12-25T13:50:15.507Z,81.90
2022-12-25T13:52:46.120Z,81.90
2022-12-25T13:55:16.875Z,83.10
2022-12-25T13:58:05.917Z,83.40
2022-12-25T14:00:47.545Z,83.50
2022-12-25T14:03:47.133Z,83.50
2022-12-25T14:06:35.545Z,83.70
2022-12-25T14:09:06.367Z,85.10
2022-12-25T14:11:37.184Z,85.50
2022-12-25T14:14:27.687Z,86.30
2022-12-25T14:17:00.590Z,86.90
2022-12-25T14:19:33.653Z,88.10
2022-12-25T14:22:14.044Z,88.50
2022-12-25T14:24:44.099Z,88.80
2022-12-25T14:27:28.693Z,89.20
2022-12-25T14:30:01.093Z,89.60
2022-12-25T14:32:34.358Z,89.80
2022-12-25T14:35:06.172Z,89.90
2022-12-25T14:37:38.593Z,90.00
2022-12-25T14:40:26.511Z,90.10
2022-12-25T14:43:02.456Z,90.10
2022-12-25T14:45:37.535Z,90.10
2022-12-25T14:48:24.754Z,90.30
2022-12-25T14:51:05.227Z,90.50
2022-12-25T14:53:56.350Z,90.50
2022-12-25T14:56:28.295Z,90.60
2022-12-25T14:59:00.600Z,90.60
2022-12-25T15:01:46.510Z,90.70
2022-12-25T15:04:19.858Z,90.70
2022-12-25T15:07:12.069Z,90.90
2022-12-25T15:09:42.287Z,91.00
2022-12-25T15:12:12.233Z,91.00
2022-12-25T15:14:42.160Z,91.00
2022-12-25T15:17:26.174Z,91.20
2022-12-25T15:19:59.908Z,91.30
2022-12-25T15:22:47.697Z,91.30
2022-12-25T15:25:22.185Z,91.30
2022-12-25T15:27:52.248Z,91.40
2022-12-25T15:30:22.212Z,91.40
2022-12-25T15:32:52.243Z,91.50
2022-12-25T15:35:24.190Z,91.60
2022-12-25T15:37:54.138Z,91.60
2022-12-25T15:40:24.098Z,91.60
2022-12-25T15:42:56.336Z,91.70
2022-12-25T15:45:29.344Z,91.60
2022-12-25T15:48:00.185Z,91.70
2022-12-25T15:50:30.981Z,91.70
2022-12-25T15:53:02.227Z,91.80
2022-12-25T15:55:32.155Z,91.90
2022-12-25T15:58:02.167Z,91.90
2022-12-25T16:00:32.080Z,91.80
2022-12-25T16:03:02.275Z,91.90
2022-12-25T16:05:32.434Z,91.90
2022-12-25T16:08:02.532Z,91.80
2022-12-25T16:10:38.438Z,91.70
2022-12-25T16:13:09.153Z,91.70
2022-12-25T16:15:40.282Z,91.70
2022-12-25T16:18:12.840Z,91.50
2022-12-25T16:20:43.500Z,91.40
2022-12-25T16:23:14.631Z,91.30
2022-12-25T16:25:44.575Z,91.20
2022-12-25T16:28:14.698Z,91.20
2022-12-25T16:30:45.356Z,91.20
2022-12-25T16:33:15.278Z,91.30
2022-12-25T16:35:45.915Z,91.30
2022-12-25T16:38:15.274Z,91.40
2022-12-25T16:40:45.694Z,91.60
2022-12-25T16:43:18.919Z,91.70
2022-12-25T16:45:54.236Z,92.00
2022-12-25T16:48:25.096Z,92.20
2022-12-25T16:50:55.318Z,92.30
2022-12-25T16:53:25.754Z,92.30
2022-12-25T16:56:06.480Z,92.30
2022-12-25T16:58:36.570Z,92.30
2022-12-25T17:01:10.877Z,92.20
2022-12-25T17:03:41.585Z,92.20
2022-12-25T17:06:24.878Z,92.20
2022-12-25T17:08:58.260Z,92.60
2022-12-25T17:11:31.315Z,92.30
2022-12-25T17:14:04.210Z,92.30
2022-12-25T17:16:36.666Z,92.30
2022-12-25T17:19:11.964Z,92.30
2022-12-25T17:21:42.208Z,92.30
2022-12-25T17:24:12.450Z,92.40
2022-12-25T17:26:43.321Z,92.50
2022-12-25T17:29:21.407Z,92.50
2022-12-25T17:31:53.053Z,92.60
2022-12-25T17:34:23.866Z,92.70
2022-12-25T17:36:53.225Z,92.60
2022-12-25T17:39:23.248Z,92.50
2022-12-25T17:41:53.531Z,92.50
2022-12-25T17:44:23.795Z,92.40
2022-12-25T17:46:53.867Z,92.30
2022-12-25T17:49:25.093Z,92.30
2022-12-25T17:51:56.641Z,92.20
2022-12-25T17:54:27.106Z,92.50
2022-12-25T17:56:57.063Z,92.20
2022-12-25T17:59:31.208Z,92.30
2022-12-25T18:02:01.218Z,92.30
2022-12-25T18:04:31.207Z,92.30
2022-12-25T18:07:02.067Z,92.20
2022-12-25T18:09:32.117Z,92.20
2022-12-25T18:12:02.176Z,92.10
2022-12-25T18:14:32.550Z,92.00
2022-12-25T18:17:02.555Z,91.80
2022-12-25T18:19:33.013Z,91.80
2022-12-25T18:22:03.187Z,91.50
2022-12-25T18:24:33.156Z,91.50
2022-12-25T18:27:02.983Z,91.50
2022-12-25T18:29:32.819Z,91.70
2022-12-25T18:32:02.903Z,91.80
2022-12-25T18:34:32.785Z,92.00
2022-12-25T18:37:04.696Z,92.10
2022-12-25T18:39:35.494Z,92.10
2022-12-25T18:42:20.009Z,92.20
2022-12-25T18:44:49.875Z,92.10
2022-12-25T18:47:19.753Z,92.10
2022-12-25T18:49:50.221Z,92.20
2022-12-25T18:52:49.174Z,92.30
2022-12-25T18:55:10.786Z,92.20
2022-12-25T18:57:42.346Z,92.20
2022-12-25T19:00:12.720Z,92.00
2022-12-25T19:02:42.827Z,91.70
2022-12-25T19:05:12.920Z,91.50
2022-12-25T19:07:43.205Z,91.30
2022-12-25T19:10:13.209Z,91.20
2022-12-25T19:12:43.114Z,91.00
2022-12-25T19:15:13.772Z,90.90
2022-12-25T19:17:43.672Z,91.00
2022-12-25T19:20:14.216Z,91.00
2022-12-25T19:22:44.035Z,91.00
2022-12-25T19:25:14.418Z,90.90
2022-12-25T19:27:44.463Z,90.70
2022-12-25T19:30:15.362Z,90.80
2022-12-25T19:32:45.240Z,91.10
2022-12-25T19:35:15.236Z,91.10
2022-12-25T19:37:45.142Z,91.20
2022-12-25T19:40:15.070Z,91.40
2022-12-25T19:42:44.992Z,91.40
2022-12-25T19:45:15.019Z,91.50
2022-12-25T19:47:45.916Z,91.60
2022-12-25T19:50:15.837Z,91.70
2022-12-25T19:52:46.204Z,91.80
2022-12-25T19:55:16.153Z,91.70
2022-12-25T19:57:46.075Z,91.60
2022-12-25T20:00:16.524Z,91.40
2022-12-25T20:02:46.445Z,91.30
2022-12-25T20:05:16.348Z,91.20
2022-12-25T20:07:46.312Z,91.20
2022-12-25T20:10:16.143Z,91.10
2022-12-25T20:12:46.108Z,91.20
2022-12-25T20:15:16.008Z,91.10
2022-12-25T20:17:45.841Z,91.10
2022-12-25T20:20:16.336Z,90.90
2022-12-25T20:22:46.282Z,90.90
2022-12-25T20:25:16.169Z,90.90
2022-12-25T20:27:46.195Z,91.00
2022-12-25T20:30:16.625Z,91.30
2022-12-25T20:32:50.311Z,91.60
2022-12-25T20:35:20.872Z,91.50
2022-12-25T20:37:50.769Z,91.50
2022-12-25T20:40:20.842Z,91.70
2022-12-25T20:42:50.769Z,91.70
2022-12-25T20:45:20.650Z,91.80
2022-12-25T20:47:50.506Z,91.70
2022-12-25T20:50:20.562Z,91.70
2022-12-25T20:52:50.452Z,91.60
2022-12-25T20:55:20.355Z,91.50
2022-12-25T20:57:50.377Z,91.60
2022-12-25T21:00:20.335Z,91.50
2022-12-25T21:02:50.450Z,91.40
2022-12-25T21:05:20.553Z,91.60
2022-12-25T21:07:50.392Z,91.70
2022-12-25T21:10:20.418Z,91.80
2022-12-25T21:12:50.293Z,91.80
2022-12-25T21:15:20.290Z,91.70
2022-12-25T21:17:50.102Z,91.70
2022-12-25T21:20:20.027Z,91.80
2022-12-25T21:22:49.814Z,91.90
2022-12-25T21:25:19.739Z,91.90
2022-12-25T21:27:49.555Z,91.90
2022-12-25T21:30:19.468Z,91.90
2022-12-25T21:33:00.307Z,92.10
2022-12-25T21:35:29.526Z,92.20
2022-12-25T21:37:59.416Z,92.20
2022-12-25T21:40:29.365Z,92.00
2022-12-25T21:42:59.297Z,91.90
2022-12-25T21:45:29.680Z,91.70
2022-12-25T21:48:02.996Z,91.50
2022-12-25T21:50:51.242Z,91.60
2022-12-25T21:53:22.577Z,91.60
2022-12-25T21:56:02.516Z,91.60
2022-12-25T21:58:32.591Z,91.50
2022-12-25T22:01:06.276Z,91.40
2022-12-25T22:03:36.429Z,91.40
2022-12-25T22:06:22.187Z,91.30
2022-12-25T22:08:52.231Z,91.20
2022-12-25T22:11:32.550Z,91.10
2022-12-25T22:14:12.826Z,91.30
2022-12-25T22:16:52.861Z,91.20
2022-12-25T22:19:33.097Z,91.30
2022-12-25T22:22:02.925Z,91.50
2022-12-25T22:24:32.881Z,91.50
2022-12-25T22:27:02.840Z,91.50
2022-12-25T22:29:32.671Z,91.50
2022-12-25T22:32:02.666Z,91.50
2022-12-25T22:34:32.670Z,91.60
2022-12-25T22:37:02.839Z,91.80
2022-12-25T22:39:34.198Z,91.90
2022-12-25T22:42:04.671Z,92.10
2022-12-25T22:44:35.323Z,92.20
2022-12-25T22:47:05.916Z,92.20
2022-12-25T22:49:35.988Z,92.20
2022-12-25T22:52:05.971Z,92.00
2022-12-25T22:54:35.831Z,92.00
2022-12-25T22:57:05.809Z,92.10
2022-12-25T22:59:36.132Z,92.20
2022-12-25T23:02:06.155Z,92.20
2022-12-25T23:04:36.469Z,92.10
2022-12-25T23:07:06.310Z,91.80
2022-12-25T23:09:37.147Z,91.90
2022-12-25T23:12:06.517Z,92.10
2022-12-25T23:14:43.520Z,92.20
2022-12-25T23:17:26.542Z,92.30
2022-12-25T23:20:06.762Z,92.30
2022-12-25T23:22:46.845Z,92.10
2022-12-25T23:25:37.073Z,92.40
2022-12-25T23:28:07.031Z,92.20
2022-12-25T23:30:36.805Z,92.30
2022-12-25T23:33:07.010Z,92.30
2022-12-25T23:35:36.873Z,92.30
2022-12-25T23:38:06.788Z,92.50
2022-12-25T23:40:36.775Z,92.40
2022-12-25T23:43:06.719Z,92.20
2022-12-25T23:45:36.516Z,92.10
2022-12-25T23:48:06.547Z,91.90
2022-12-25T23:50:36.862Z,91.90
2022-12-25T23:53:06.710Z,91.90
2022-12-25T23:55:36.992Z,92.00
2022-12-25T23:58:07.112Z,92.40
